Time;durP1;ratioP1;P1;durP2;ratioP2;P2;SDS_P1;SDS_P2;PMS_P1;PMS_P2;Temp;Humidity;BMP_temperature;BMP_pressure;BME280_temperature;BME280_humidity;BME280_pressure;Samples;Min_cycle;Max_cycle;Signal;HPM_P1;HPM_P2
2023/12/13 00:01:38;;;;;;;1.25;0.73;;;20.70;44.90;;;;;;5027839;28;20022;-58
2023/12/13 00:04:04;;;;;;;0.60;0.50;;;20.70;44.90;;;;;;5033283;28;20087;-58
2023/12/13 00:06:30;;;;;;;1.08;0.68;;;20.70;44.90;;;;;;5030041;28;20021;-57
2023/12/13 00:08:56;;;;;;;0.45;0.30;;;20.70;44.90;;;;;;5031422;28;20116;-57
2023/12/13 00:11:22;;;;;;;1.02;0.52;;;20.70;44.90;;;;;;5026018;28;20163;-58
2023/12/13 00:13:48;;;;;;;2.15;0.60;;;20.60;44.80;;;;;;5027339;28;20049;-57
2023/12/13 00:16:14;;;;;;;1.33;0.55;;;20.60;44.80;;;;;;5026847;28;20021;-55
2023/12/13 00:18:40;;;;;;;1.52;0.68;;;20.70;44.80;;;;;;5031369;28;20071;-58
2023/12/13 00:21:06;;;;;;;1.92;0.80;;;20.70;44.80;;;;;;5025502;28;20556;-56
2023/12/13 00:23:32;;;;;;;1.98;0.90;;;20.60;44.80;;;;;;5021404;28;20037;-54
2023/12/13 00:25:58;;;;;;;1.17;0.70;;;20.60;44.70;;;;;;5027922;28;20026;-52
2023/12/13 00:28:24;;;;;;;1.73;0.77;;;20.60;44.70;;;;;;5034604;28;20033;-58
2023/12/13 00:30:50;;;;;;;0.98;0.50;;;20.60;44.70;;;;;;5029204;28;20075;-55
2023/12/13 00:33:15;;;;;;;1.55;0.70;;;20.60;45.00;;;;;;5027859;28;20072;-57
2023/12/13 00:35:41;;;;;;;1.15;0.77;;;20.60;44.70;;;;;;5027317;28;20499;-57
2023/12/13 00:38:08;;;;;;;1.25;0.60;;;20.60;44.70;;;;;;5027556;28;20077;-58
2023/12/13 00:40:34;;;;;;;1.48;0.70;;;20.60;44.70;;;;;;5027226;28;20456;-58
2023/12/13 00:43:01;;;;;;;0.90;0.60;;;20.60;44.70;;;;;;5030216;28;20057;-56
2023/12/13 00:45:27;;;;;;;1.95;0.88;;;20.60;44.70;;;;;;5026109;28;20053;-57
2023/12/13 00:47:52;;;;;;;1.02;0.50;;;20.60;44.70;;;;;;5030528;28;20411;-53
2023/12/13 00:50:18;;;;;;;2.17;0.63;;;20.60;44.70;;;;;;5027356;28;20022;-56
2023/12/13 00:52:44;;;;;;;1.30;0.50;;;20.60;44.70;;;;;;5024686;28;20022;-55
2023/12/13 00:55:10;;;;;;;0.73;0.50;;;20.60;44.70;;;;;;5028151;28;20072;-55
2023/12/13 00:57:36;;;;;;;0.82;0.50;;;20.60;44.70;;;;;;5026860;28;20044;-55
2023/12/13 01:00:01;;;;;;;1.15;0.60;;;20.60;44.60;;;;;;5022182;28;20034;-56
2023/12/13 01:02:28;;;;;;;0.70;0.40;;;20.60;44.60;;;;;;5028205;28;20044;-58
2023/12/13 01:04:54;;;;;;;1.17;0.50;;;20.60;44.60;;;;;;5024756;28;20121;-57
2023/12/13 01:07:19;;;;;;;1.45;0.60;;;20.60;44.60;;;;;;5030808;28;20477;-55
2023/12/13 01:09:45;;;;;;;1.25;0.52;;;20.60;44.60;;;;;;5026752;28;20348;-59
2023/12/13 01:12:13;;;;;;;0.88;0.30;;;20.60;44.60;;;;;;5024924;28;20022;-58
2023/12/13 01:14:39;;;;;;;1.08;0.60;;;20.60;44.60;;;;;;5026194;28;20063;-56
2023/12/13 01:17:04;;;;;;;1.27;0.63;;;20.60;44.60;;;;;;5028363;28;20357;-50
2023/12/13 01:19:30;;;;;;;0.73;0.40;;;20.60;44.60;;;;;;5026105;28;20056;-56
2023/12/13 01:21:56;;;;;;;1.33;0.50;;;20.60;44.60;;;;;;5023159;28;20026;-53
2023/12/13 01:24:22;;;;;;;1.55;0.80;;;20.60;44.50;;;;;;5024549;28;20099;-59
2023/12/13 01:26:48;;;;;;;1.67;0.50;;;20.50;44.50;;;;;;5027653;28;20026;-58
2023/12/13 01:29:14;;;;;;;0.90;0.50;;;20.50;44.50;;;;;;5026890;28;20358;-56
2023/12/13 01:31:39;;;;;;;1.02;0.50;;;20.50;44.50;;;;;;5028622;28;20030;-55
2023/12/13 01:34:06;;;;;;;1.42;0.60;;;20.50;44.40;;;;;;5032126;28;20088;-56
2023/12/13 01:36:39;;;;;;;1.40;0.70;;;20.60;44.50;;;;;;5035752;28;20467;-53
2023/12/13 01:39:05;;;;;;;0.60;0.35;;;20.50;44.50;;;;;;5036447;28;20033;-55
2023/12/13 01:41:30;;;;;;;0.90;0.50;;;20.50;44.50;;;;;;5029535;28;20483;-56
2023/12/13 01:43:56;;;;;;;1.52;0.60;;;20.50;44.50;;;;;;5034122;28;20046;-58
2023/12/13 01:46:22;;;;;;;1.90;0.88;;;20.50;44.50;;;;;;5035048;28;20387;-58
2023/12/13 01:48:49;;;;;;;1.08;0.45;;;20.50;44.50;;;;;;5034974;28;20060;-57
2023/12/13 01:51:14;;;;;;;1.63;0.50;;;20.50;45.10;;;;;;5036736;28;20033;-59
2023/12/13 01:53:41;;;;;;;1.52;0.40;;;20.50;44.50;;;;;;5035229;28;20075;-57
2023/12/13 01:56:10;;;;;;;1.75;0.47;;;20.50;44.40;;;;;;5036850;28;20033;-58
2023/12/13 01:58:37;;;;;;;0.95;0.50;;;20.50;44.40;;;;;;5022581;28;20042;-58
2023/12/13 02:01:06;;;;;;;1.10;0.55;;;20.50;44.40;;;;;;5033768;28;20355;-58
2023/12/13 02:03:33;;;;;;;0.85;0.45;;;20.50;44.40;;;;;;5029762;28;20376;-59
2023/12/13 02:06:03;;;;;;;0.95;0.40;;;20.50;44.40;;;;;;5030100;28;20040;-55
2023/12/13 02:08:30;;;;;;;1.17;0.50;;;20.50;44.40;;;;;;5028275;28;20048;-57
2023/12/13 02:10:58;;;;;;;0.70;0.40;;;20.50;44.40;;;;;;5025224;28;20026;-54
2023/12/13 02:13:24;;;;;;;1.92;0.52;;;20.50;44.40;;;;;;5029569;28;20033;-59
2023/12/13 02:15:50;;;;;;;2.33;0.55;;;20.50;44.40;;;;;;5034679;28;20084;-54
2023/12/13 02:18:16;;;;;;;0.82;0.40;;;20.50;44.40;;;;;;5037694;28;20064;-59
2023/12/13 02:20:45;;;;;;;0.30;0.30;;;20.50;44.40;;;;;;5036067;28;20030;-58
2023/12/13 02:23:11;;;;;;;0.93;0.40;;;20.50;44.40;;;;;;5036422;28;20053;-56
2023/12/13 02:25:40;;;;;;;1.00;0.50;;;20.50;44.40;;;;;;5034540;28;20123;-56
2023/12/13 02:28:07;;;;;;;0.90;0.30;;;20.40;44.30;;;;;;5036379;28;20060;-57
2023/12/13 02:30:33;;;;;;;0.93;0.57;;;20.40;44.30;;;;;;5032861;28;20036;-53
2023/12/13 02:32:59;;;;;;;0.98;0.50;;;20.40;44.30;;;;;;5034842;28;20029;-54
2023/12/13 02:35:25;;;;;;;0.40;0.30;;;20.40;44.30;;;;;;5034717;28;20062;-52
2023/12/13 02:37:51;;;;;;;1.80;0.32;;;20.40;44.30;;;;;;5034384;28;20036;-58
2023/12/13 02:40:21;;;;;;;0.93;0.43;;;20.40;44.30;;;;;;5036255;28;20033;-55
2023/12/13 02:42:47;;;;;;;0.95;0.40;;;20.50;44.40;;;;;;5034267;28;20404;-53
2023/12/13 02:45:14;;;;;;;0.60;0.40;;;20.40;44.30;;;;;;5036121;28;20116;-52
2023/12/13 02:47:43;;;;;;;0.93;0.50;;;20.50;44.30;;;;;;5049703;28;20120;-58
2023/12/13 02:50:11;;;;;;;0.80;0.70;;;20.40;44.30;;;;;;5028843;28;20049;-58
2023/12/13 02:52:38;;;;;;;2.05;0.40;;;20.40;44.30;;;;;;5027070;28;20055;-55
2023/12/13 02:55:04;;;;;;;1.08;0.40;;;20.40;44.30;;;;;;5023858;28;20029;-58
2023/12/13 02:57:30;;;;;;;0.60;0.40;;;20.40;44.30;;;;;;5017099;28;20042;-56
2023/12/13 02:59:56;;;;;;;0.60;0.32;;;20.40;44.30;;;;;;5016026;28;20026;-60
2023/12/13 03:02:22;;;;;;;1.55;0.40;;;20.40;44.30;;;;;;5017078;28;20326;-56
2023/12/13 03:04:48;;;;;;;0.88;0.43;;;20.40;44.20;;;;;;5015956;28;20175;-55
2023/12/13 03:07:14;;;;;;;0.40;0.30;;;20.40;44.20;;;;;;5023207;28;20029;-55
2023/12/13 03:09:40;;;;;;;1.08;0.30;;;20.40;44.30;;;;;;5033748;28;20026;-55
2023/12/13 03:12:06;;;;;;;0.57;0.45;;;20.40;44.20;;;;;;5051016;28;20091;-51
2023/12/13 03:14:32;;;;;;;1.10;0.40;;;20.40;44.20;;;;;;5024428;28;20036;-56
2023/12/13 03:16:58;;;;;;;0.60;0.30;;;20.40;44.20;;;;;;5021041;28;20038;-56
2023/12/13 03:19:24;;;;;;;1.13;0.43;;;20.40;44.20;;;;;;5020994;28;20037;-57
2023/12/13 03:21:50;;;;;;;0.47;0.30;;;20.40;44.20;;;;;;5035592;28;20041;-58
2023/12/13 03:24:16;;;;;;;0.73;0.30;;;20.40;44.20;;;;;;5033828;28;20049;-55
2023/12/13 03:26:41;;;;;;;0.50;0.13;;;20.40;44.30;;;;;;5034529;28;20111;-53
2023/12/13 03:29:07;;;;;;;1.02;0.40;;;20.40;44.20;;;;;;5034419;28;20025;-55
2023/12/13 03:31:33;;;;;;;2.78;0.55;;;20.40;44.30;;;;;;5017812;28;20095;-57
2023/12/13 03:34:00;;;;;;;0.60;0.30;;;20.40;44.30;;;;;;5034314;28;20026;-56
2023/12/13 03:36:26;;;;;;;0.73;0.30;;;20.40;44.30;;;;;;5033396;28;20029;-52
2023/12/13 03:38:53;;;;;;;0.80;0.40;;;20.40;44.30;;;;;;5030744;28;20038;-56
2023/12/13 03:41:19;;;;;;;2.10;0.43;;;20.40;44.30;;;;;;5028404;28;20033;-57
2023/12/13 03:43:45;;;;;;;0.52;0.40;;;20.40;44.30;;;;;;5015368;28;20101;-58
2023/12/13 03:46:11;;;;;;;0.77;0.50;;;20.40;44.30;;;;;;5016257;28;20444;-56
2023/12/13 03:48:37;;;;;;;0.95;0.40;;;20.40;44.20;;;;;;5033622;28;20060;-56
2023/12/13 03:51:04;;;;;;;0.65;0.32;;;20.40;44.30;;;;;;5022432;28;20045;-52
2023/12/13 03:53:31;;;;;;;0.73;0.30;;;20.40;44.30;;;;;;5016099;28;20123;-51
2023/12/13 03:55:57;;;;;;;1.73;0.50;;;20.30;44.20;;;;;;5023630;28;20051;-56
2023/12/13 03:58:22;;;;;;;0.88;0.30;;;20.30;44.20;;;;;;5019893;28;20037;-54
2023/12/13 04:00:48;;;;;;;0.50;0.40;;;20.40;44.30;;;;;;5015113;28;20037;-53
2023/12/13 04:03:14;;;;;;;0.50;0.30;;;20.30;44.20;;;;;;5014993;28;20029;-57
2023/12/13 04:05:40;;;;;;;0.40;0.30;;;20.40;44.30;;;;;;5015511;28;20052;-58
2023/12/13 04:08:06;;;;;;;1.40;0.45;;;20.30;44.20;;;;;;5020855;28;20018;-57
2023/12/13 04:10:32;;;;;;;0.50;0.30;;;20.40;44.30;;;;;;5014780;28;20411;-55
2023/12/13 04:12:58;;;;;;;0.50;0.32;;;20.30;44.30;;;;;;5030169;28;20064;-58
2023/12/13 04:15:24;;;;;;;0.45;0.38;;;20.30;44.30;;;;;;5017213;28;20030;-59
2023/12/13 04:17:50;;;;;;;0.98;0.40;;;20.30;44.30;;;;;;5024546;28;20148;-59
2023/12/13 04:20:16;;;;;;;0.90;0.30;;;20.30;44.30;;;;;;5033127;28;20035;-53
2023/12/13 04:22:42;;;;;;;0.65;0.40;;;20.30;44.30;;;;;;5034859;28;20084;-57
2023/12/13 04:25:08;;;;;;;0.77;0.40;;;20.40;45.00;;;;;;5033540;28;20034;-55
2023/12/13 04:27:34;;;;;;;1.27;0.43;;;20.30;44.40;;;;;;5035120;28;20328;-60
2023/12/13 04:30:00;;;;;;;1.02;0.30;;;20.30;44.40;;;;;;5030236;28;20036;-50
2023/12/13 04:32:26;;;;;;;1.05;0.60;;;20.30;44.40;;;;;;5027853;28;20356;-55
2023/12/13 04:34:52;;;;;;;0.70;0.40;;;20.30;44.40;;;;;;5034694;28;20052;-55
2023/12/13 04:37:19;;;;;;;0.50;0.30;;;20.30;44.40;;;;;;5016457;28;20041;-55
2023/12/13 04:39:45;;;;;;;0.77;0.43;;;20.30;44.50;;;;;;5016819;28;20341;-54
2023/12/13 04:42:11;;;;;;;1.70;0.55;;;20.30;44.50;;;;;;5019708;28;20026;-58
2023/12/13 04:44:37;;;;;;;1.30;0.57;;;20.30;44.50;;;;;;5027071;28;20440;-56
2023/12/13 04:47:03;;;;;;;0.88;0.40;;;20.30;44.50;;;;;;5027268;28;20037;-55
2023/12/13 04:49:29;;;;;;;0.70;0.50;;;20.30;44.50;;;;;;5018561;28;20022;-56
2023/12/13 04:51:55;;;;;;;0.80;0.40;;;20.30;44.50;;;;;;5033805;28;20351;-51
2023/12/13 04:54:21;;;;;;;1.42;0.60;;;20.30;44.60;;;;;;5038371;28;20087;-54
2023/12/13 04:56:47;;;;;;;0.80;0.40;;;20.30;44.60;;;;;;5026859;28;20117;-56
2023/12/13 04:59:13;;;;;;;0.93;0.47;;;20.30;44.60;;;;;;5033588;28;20068;-55
2023/12/13 05:01:39;;;;;;;1.00;0.30;;;20.30;44.60;;;;;;5030510;28;20021;-56
2023/12/13 05:04:05;;;;;;;0.80;0.52;;;20.30;44.60;;;;;;5024244;28;20029;-55
2023/12/13 05:06:31;;;;;;;0.68;0.40;;;20.30;44.70;;;;;;5036732;28;20425;-54
2023/12/13 05:08:56;;;;;;;1.13;0.55;;;20.30;44.70;;;;;;5027134;28;20034;-55
2023/12/13 05:11:22;;;;;;;2.50;0.50;;;20.30;44.70;;;;;;5033658;28;20029;-57
2023/12/13 05:13:48;;;;;;;2.13;0.60;;;20.30;44.70;;;;;;5025048;28;20030;-55
2023/12/13 05:16:15;;;;;;;1.63;0.50;;;20.30;44.70;;;;;;5018187;28;20026;-57
2023/12/13 05:18:40;;;;;;;0.70;0.30;;;20.30;44.70;;;;;;5036245;28;20060;-55
2023/12/13 05:21:06;;;;;;;2.05;0.50;;;20.30;44.70;;;;;;5037396;28;20337;-56
2023/12/13 05:23:32;;;;;;;0.77;0.30;;;20.30;44.70;;;;;;5035979;28;20344;-57
2023/12/13 05:25:58;;;;;;;0.70;0.40;;;20.30;44.70;;;;;;5031307;28;20344;-55
2023/12/13 05:28:24;;;;;;;1.20;0.57;;;20.30;44.70;;;;;;5042679;28;20033;-60
2023/12/13 05:30:49;;;;;;;1.30;0.70;;;20.30;44.80;;;;;;5028230;28;20502;-53
2023/12/13 05:33:15;;;;;;;1.30;0.50;;;20.30;44.80;;;;;;5037389;28;20072;-54
2023/12/13 05:35:41;;;;;;;0.88;0.55;;;20.30;44.80;;;;;;5026479;28;20029;-56
2023/12/13 05:38:07;;;;;;;0.63;0.40;;;20.30;44.80;;;;;;5037360;28;20049;-59
2023/12/13 05:40:33;;;;;;;0.85;0.40;;;20.30;44.80;;;;;;5051025;28;20021;-57
2023/12/13 05:42:59;;;;;;;1.80;0.50;;;20.30;44.80;;;;;;5035113;28;20060;-54
2023/12/13 05:45:25;;;;;;;0.82;0.50;;;20.30;44.80;;;;;;5036128;28;20017;-55
2023/12/13 05:47:51;;;;;;;1.75;0.60;;;20.30;44.90;;;;;;5026218;28;20092;-55
2023/12/13 05:50:17;;;;;;;0.82;0.40;;;20.30;44.90;;;;;;5021450;28;20424;-55
2023/12/13 05:52:43;;;;;;;1.38;0.40;;;20.30;44.90;;;;;;5024019;28;20036;-56
2023/12/13 05:55:09;;;;;;;1.27;0.43;;;20.20;44.90;;;;;;5019390;28;20029;-58
2023/12/13 05:57:48;;;;;;;0.75;0.40;;;20.20;44.90;;;;;;5022855;28;20037;-59
2023/12/13 06:00:14;;;;;;;0.90;0.30;;;20.30;45.00;;;;;;5036686;28;20033;-57
2023/12/13 06:02:40;;;;;;;2.03;0.60;;;20.20;44.90;;;;;;5029780;28;20121;-55
2023/12/13 06:05:06;;;;;;;1.63;0.50;;;20.30;45.00;;;;;;5025652;28;20108;-58
2023/12/13 06:07:32;;;;;;;1.10;0.50;;;20.30;45.00;;;;;;5022986;28;20112;-58
2023/12/13 06:09:58;;;;;;;1.98;0.68;;;20.20;45.00;;;;;;5035267;28;20080;-58
2023/12/13 06:12:24;;;;;;;1.30;0.35;;;20.20;45.00;;;;;;5028743;28;20087;-58
2023/12/13 06:14:50;;;;;;;1.00;0.55;;;20.20;45.00;;;;;;5026650;28;20112;-54
2023/12/13 06:17:16;;;;;;;1.50;0.50;;;20.20;45.00;;;;;;5032163;28;20038;-55
2023/12/13 06:19:42;;;;;;;1.60;0.57;;;20.20;45.00;;;;;;5025874;28;20567;-51
2023/12/13 06:22:09;;;;;;;1.98;0.70;;;20.20;45.60;;;;;;5023241;28;20041;-57
2023/12/13 06:24:34;;;;;;;1.55;0.52;;;20.20;45.00;;;;;;5023043;28;20028;-57
2023/12/13 06:27:00;;;;;;;1.83;0.70;;;20.20;45.10;;;;;;5032400;28;20038;-58
2023/12/13 06:29:26;;;;;;;1.55;0.75;;;20.20;45.10;;;;;;5027762;28;20038;-60
2023/12/13 06:31:52;;;;;;;1.15;0.63;;;20.20;45.10;;;;;;5019294;28;20369;-60
2023/12/13 06:34:17;;;;;;;1.10;0.47;;;20.20;45.10;;;;;;5035922;28;20025;-55
2023/12/13 06:36:43;;;;;;;1.17;0.50;;;20.20;45.10;;;;;;5032690;28;20040;-55
2023/12/13 06:39:11;;;;;;;1.48;0.68;;;20.20;45.10;;;;;;5033423;28;20428;-57
2023/12/13 06:41:39;;;;;;;1.67;0.60;;;20.20;45.10;;;;;;5032799;28;20463;-56
2023/12/13 06:44:06;;;;;;;1.63;0.52;;;20.20;45.20;;;;;;5035157;28;20075;-60
2023/12/13 06:46:31;;;;;;;1.02;0.60;;;20.20;45.20;;;;;;5023897;28;20049;-57
2023/12/13 06:48:57;;;;;;;2.42;0.80;;;20.20;45.20;;;;;;5016652;28;20448;-56
2023/12/13 06:51:23;;;;;;;0.85;0.35;;;20.20;45.20;;;;;;5016997;28;20054;-59
2023/12/13 06:53:49;;;;;;;1.92;0.70;;;20.20;45.20;;;;;;5016281;28;20025;-54
2023/12/13 06:56:15;;;;;;;1.83;0.88;;;20.20;45.20;;;;;;5024999;28;20029;-58
2023/12/13 06:58:41;;;;;;;1.45;0.70;;;20.20;45.20;;;;;;5035153;28;20106;-59
2023/12/13 07:01:07;;;;;;;1.98;0.73;;;20.20;45.20;;;;;;5033720;28;20042;-57
2023/12/13 07:03:32;;;;;;;1.13;0.50;;;20.20;45.30;;;;;;5022828;28;20065;-58
2023/12/13 07:05:58;;;;;;;1.55;0.57;;;20.20;45.30;;;;;;5046992;28;20043;-60
2023/12/13 07:08:24;;;;;;;1.90;0.52;;;20.20;45.30;;;;;;5029565;28;20029;-58
2023/12/13 07:10:50;;;;;;;1.55;0.60;;;20.20;45.30;;;;;;5019530;28;20044;-57
2023/12/13 07:13:16;;;;;;;1.90;0.60;;;20.20;45.30;;;;;;5033222;28;20040;-56
2023/12/13 07:15:42;;;;;;;2.25;1.00;;;20.20;45.30;;;;;;5030972;28;20025;-57
2023/12/13 07:18:08;;;;;;;2.00;0.70;;;20.20;45.30;;;;;;5029476;28;20056;-50
2023/12/13 07:20:34;;;;;;;1.55;0.60;;;20.20;45.40;;;;;;5030486;28;20355;-55
2023/12/13 07:23:00;;;;;;;2.15;0.68;;;20.20;45.40;;;;;;5030635;28;20111;-59
2023/12/13 07:25:25;;;;;;;1.20;0.60;;;20.20;45.40;;;;;;5043059;28;20018;-58
2023/12/13 07:27:51;;;;;;;1.98;0.98;;;20.20;45.40;;;;;;5025567;28;20539;-54
2023/12/13 07:30:17;;;;;;;3.15;1.00;;;20.20;45.40;;;;;;5028345;28;20045;-56
2023/12/13 07:32:44;;;;;;;1.00;0.50;;;20.10;45.40;;;;;;5031213;28;20064;-58
2023/12/13 07:35:10;;;;;;;2.90;0.77;;;20.20;45.50;;;;;;5025379;28;20038;-59
2023/12/13 07:37:36;;;;;;;2.42;0.77;;;20.10;45.40;;;;;;5020137;28;20033;-56
2023/12/13 07:40:05;;;;;;;2.55;0.82;;;20.20;45.50;;;;;;5028807;28;20017;-60
2023/12/13 07:42:31;;;;;;;2.58;0.90;;;20.10;45.50;;;;;;5026371;28;20033;-60
2023/12/13 07:44:57;;;;;;;1.02;0.60;;;20.20;45.50;;;;;;5043955;28;20115;-59
2023/12/13 07:47:23;;;;;;;2.45;0.68;;;20.20;45.50;;;;;;5031812;28;20029;-60
2023/12/13 07:49:49;;;;;;;1.92;0.80;;;20.10;45.50;;;;;;5029698;28;20044;-59
2023/12/13 07:52:15;;;;;;;1.77;0.68;;;20.20;45.50;;;;;;5029711;28;20111;-57
2023/12/13 07:54:42;;;;;;;3.30;0.65;;;20.20;45.50;;;;;;5032116;28;20036;-58
2023/12/13 07:57:08;;;;;;;2.15;0.65;;;20.10;45.50;;;;;;5016372;28;20038;-58
2023/12/13 07:59:34;;;;;;;2.60;1.00;;;20.20;45.60;;;;;;5014391;28;20034;-56
2023/12/13 08:02:00;;;;;;;1.92;0.80;;;20.20;45.60;;;;;;5023977;28;20041;-55
2023/12/13 08:04:26;;;;;;;1.50;0.47;;;20.10;45.60;;;;;;5024537;28;20112;-58
2023/12/13 08:06:52;;;;;;;3.13;0.55;;;20.10;45.60;;;;;;5026773;28;20121;-57
2023/12/13 08:09:19;;;;;;;1.27;0.55;;;20.10;45.60;;;;;;5023355;28;20446;-57
2023/12/13 08:11:49;;;;;;;2.10;0.60;;;20.10;45.70;;;;;;5034880;28;20017;-57
2023/12/13 08:14:15;;;;;;;1.92;0.63;;;20.10;45.80;;;;;;5031064;28;20033;-55
2023/12/13 08:16:41;;;;;;;1.83;0.70;;;20.10;46.40;;;;;;5033346;28;20029;-57
2023/12/13 08:19:08;;;;;;;1.40;0.68;;;20.20;45.80;;;;;;5036174;28;20464;-57
2023/12/13 08:21:40;;;;;;;2.25;0.80;;;20.20;45.90;;;;;;5035739;28;20026;-55
2023/12/13 08:24:12;;;;;;;4.50;0.85;;;20.20;45.80;;;;;;5022230;28;20507;-54
2023/12/13 08:26:38;;;;;;;2.78;0.73;;;20.20;45.80;;;;;;5021756;28;20040;-58
2023/12/13 08:29:04;;;;;;;1.35;0.60;;;20.20;45.80;;;;;;5032344;28;20034;-57
2023/12/13 08:31:31;;;;;;;2.60;0.80;;;20.30;45.90;;;;;;5024580;28;20091;-58
2023/12/13 08:33:57;;;;;;;2.75;0.68;;;20.30;45.90;;;;;;5028892;28;20026;-55
2023/12/13 08:36:23;;;;;;;1.33;0.60;;;20.30;45.90;;;;;;5023264;28;20463;-56
2023/12/13 08:38:49;;;;;;;2.08;0.70;;;20.40;45.90;;;;;;5026756;28;20133;-55
2023/12/13 08:41:15;;;;;;;2.13;0.88;;;20.40;45.90;;;;;;5021553;28;20509;-54
2023/12/13 08:43:42;;;;;;;1.20;0.60;;;20.30;45.90;;;;;;5026689;28;20453;-57
2023/12/13 08:46:10;;;;;;;0.98;0.60;;;20.40;45.90;;;;;;5022573;28;20021;-57
2023/12/13 08:48:37;;;;;;;2.83;0.90;;;20.40;45.90;;;;;;5051291;28;20064;-57
2023/12/13 08:51:05;;;;;;;2.05;0.70;;;20.40;45.90;;;;;;5036510;28;20376;-59
2023/12/13 08:53:32;;;;;;;3.17;0.77;;;20.40;46.00;;;;;;5017815;28;20034;-59
2023/12/13 08:55:58;;;;;;;1.65;0.82;;;20.40;45.90;;;;;;5011419;28;20456;-58
2023/12/13 08:58:24;;;;;;;1.75;0.60;;;20.50;46.00;;;;;;5033449;28;20033;-55
2023/12/13 09:00:50;;;;;;;1.63;0.80;;;20.50;45.90;;;;;;5037805;28;20037;-57
2023/12/13 09:03:19;;;;;;;1.60;0.57;;;20.50;45.90;;;;;;5036873;28;20025;-55
2023/12/13 09:05:45;;;;;;;1.85;0.60;;;20.60;46.50;;;;;;5030706;28;20121;-57
2023/12/13 09:08:11;;;;;;;2.22;0.70;;;20.60;45.90;;;;;;5029666;28;20109;-57
2023/12/13 09:10:37;;;;;;;1.40;0.77;;;20.60;45.80;;;;;;5038282;28;20022;-56
2023/12/13 09:13:03;;;;;;;1.98;0.70;;;20.60;45.80;;;;;;5035107;28;20091;-59
2023/12/13 09:15:29;;;;;;;0.95;0.47;;;20.60;45.80;;;;;;5034882;28;20029;-56
2023/12/13 09:17:55;;;;;;;2.55;1.13;;;20.60;45.80;;;;;;5036964;28;20045;-56
2023/12/13 09:20:26;;;;;;;1.08;0.70;;;20.60;45.70;;;;;;5036623;28;20025;-58
2023/12/13 09:22:53;;;;;;;2.78;1.15;;;20.60;45.70;;;;;;5028018;28;20018;-58
2023/12/13 09:25:19;;;;;;;2.22;0.80;;;20.70;45.70;;;;;;5016985;28;20108;-58
2023/12/13 09:27:46;;;;;;;2.17;0.90;;;20.70;45.70;;;;;;5018586;28;20036;-56
2023/12/13 09:30:13;;;;;;;1.60;0.55;;;20.70;45.70;;;;;;5029508;28;20037;-54
2023/12/13 09:32:40;;;;;;;1.48;0.60;;;20.70;45.70;;;;;;5030651;28;20061;-54
2023/12/13 09:35:06;;;;;;;1.45;0.65;;;20.70;45.70;;;;;;5033508;28;20082;-53
2023/12/13 09:37:32;;;;;;;1.67;0.70;;;20.70;45.70;;;;;;5015494;28;20038;-56
2023/12/13 09:39:59;;;;;;;2.55;0.70;;;20.70;45.60;;;;;;5023155;28;20372;-57
2023/12/13 09:42:25;;;;;;;3.22;0.90;;;20.70;45.60;;;;;;5037758;28;20041;-57
2023/12/13 09:44:52;;;;;;;1.17;0.52;;;20.80;45.70;;;;;;5052938;28;20039;-56
2023/12/13 09:47:21;;;;;;;1.95;0.80;;;20.80;45.60;;;;;;5036975;28;20075;-55
2023/12/13 09:49:49;;;;;;;1.83;0.63;;;20.80;45.60;;;;;;5036719;28;20030;-56
2023/12/13 09:52:20;;;;;;;2.80;0.95;;;20.80;45.60;;;;;;5036600;28;20025;-52
2023/12/13 09:54:46;;;;;;;1.50;0.57;;;20.80;45.60;;;;;;5036680;28;20036;-56
2023/12/13 09:57:12;;;;;;;1.55;0.70;;;20.80;45.50;;;;;;5036183;28;20034;-55
2023/12/13 09:59:39;;;;;;;1.95;0.73;;;20.80;45.50;;;;;;5052626;28;20523;-57
2023/12/13 10:02:12;;;;;;;2.13;1.00;;;20.80;45.50;;;;;;5052454;28;20076;-56
2023/12/13 10:04:39;;;;;;;1.83;0.70;;;20.80;45.40;;;;;;5037088;28;20099;-53
2023/12/13 10:07:10;;;;;;;1.52;0.70;;;20.80;45.40;;;;;;5036468;28;20048;-55
2023/12/13 10:09:36;;;;;;;2.35;0.77;;;20.80;45.40;;;;;;5036401;28;20025;-51
2023/12/13 10:12:04;;;;;;;2.20;0.82;;;20.80;45.40;;;;;;5023867;28;20425;-55
2023/12/13 10:14:31;;;;;;;2.42;1.00;;;20.80;45.40;;;;;;5036610;28;20033;-55
2023/12/13 10:16:57;;;;;;;2.35;0.98;;;20.80;45.30;;;;;;5036223;28;20423;-54
2023/12/13 10:19:23;;;;;;;1.67;0.63;;;20.80;45.30;;;;;;5035301;28;20137;-56
2023/12/13 10:21:49;;;;;;;1.77;0.70;;;20.80;45.30;;;;;;5036442;28;20026;-55
2023/12/13 10:24:15;;;;;;;2.65;0.85;;;20.80;45.30;;;;;;5036556;28;20433;-49
2023/12/13 10:26:42;;;;;;;1.92;0.73;;;20.80;45.30;;;;;;5037040;28;20029;-54
2023/12/13 10:29:07;;;;;;;1.85;0.70;;;20.80;45.20;;;;;;5036416;28;20463;-56
2023/12/13 10:31:35;;;;;;;2.20;0.73;;;20.80;45.20;;;;;;5036525;28;20018;-55
2023/12/13 10:34:01;;;;;;;2.33;0.93;;;20.80;45.20;;;;;;5019526;28;20065;-57
2023/12/13 10:36:28;;;;;;;1.27;0.63;;;20.80;45.20;;;;;;5016532;28;20065;-58
2023/12/13 10:38:55;;;;;;;2.33;0.80;;;20.80;45.20;;;;;;5015296;28;20444;-59
2023/12/13 10:41:25;;;;;;;1.25;0.63;;;20.80;45.10;;;;;;5017913;28;20038;-55
2023/12/13 10:43:55;;;;;;;1.13;0.50;;;20.80;45.10;;;;;;5049129;28;20375;-56
2023/12/13 10:46:22;;;;;;;1.67;0.70;;;20.80;45.10;;;;;;5021597;28;20088;-55
2023/12/13 10:48:48;;;;;;;2.40;0.68;;;20.90;45.10;;;;;;5026682;28;20030;-54
2023/12/13 10:51:16;;;;;;;1.55;0.60;;;20.80;45.00;;;;;;5030041;28;20018;-56
2023/12/13 10:53:44;;;;;;;1.17;0.57;;;20.80;45.10;;;;;;5022339;28;20040;-54
2023/12/13 10:56:11;;;;;;;1.95;0.60;;;20.80;45.10;;;;;;5023380;28;20065;-54
2023/12/13 10:58:38;;;;;;;1.10;0.40;;;20.90;45.20;;;;;;5023325;28;20034;-53
2023/12/13 11:01:05;;;;;;;1.90;0.57;;;20.90;45.30;;;;;;5027889;28;20033;-53
2023/12/13 11:03:34;;;;;;;1.63;0.70;;;20.90;45.30;;;;;;5036997;28;20033;-53
2023/12/13 11:06:11;;;;;;;6.50;0.70;;;20.80;45.20;;;;;;5034520;28;20048;-51
2023/12/13 11:08:38;;;;;;;0.95;0.60;;;20.90;45.30;;;;;;5021620;28;20029;-55
2023/12/13 11:11:06;;;;;;;1.15;0.65;;;20.90;45.30;;;;;;5015945;28;20053;-58
2023/12/13 11:13:39;;;;;;;3.35;0.70;;;20.80;45.20;;;;;;5016959;28;20455;-48
2023/12/13 11:16:16;;;;;;;1.48;0.60;;;20.90;45.20;;;;;;5027028;28;20037;-55
2023/12/13 11:18:43;;;;;;;1.88;0.70;;;20.90;45.20;;;;;;5019222;28;20056;-56
2023/12/13 11:21:09;;;;;;;1.88;0.80;;;20.80;45.10;;;;;;5024299;28;20451;-54
2023/12/13 11:23:39;;;;;;;3.40;1.02;;;20.90;45.20;;;;;;5009201;28;20056;-55
2023/12/13 11:26:14;;;;;;;3.72;0.90;;;20.90;45.30;;;;;;5025728;28;20029;-53
2023/12/13 11:28:40;;;;;;;3.65;0.70;;;20.80;45.30;;;;;;5027800;28;20049;-55
2023/12/13 11:31:10;;;;;;;1.77;1.00;;;20.90;45.50;;;;;;5027175;28;20060;-59
2023/12/13 11:33:36;;;;;;;1.65;0.70;;;20.90;45.50;;;;;;5024438;28;20105;-57
2023/12/13 11:36:10;;;;;;;2.72;0.70;;;20.90;45.60;;;;;;5032769;28;20057;-56
2023/12/13 11:38:35;;;;;;;3.05;0.43;;;20.90;45.60;;;;;;5034321;28;20037;-56
2023/12/13 11:41:01;;;;;;;1.63;0.57;;;20.90;45.70;;;;;;5033422;28;20056;-57
2023/12/13 11:43:30;;;;;;;1.00;0.43;;;21.00;45.70;;;;;;5033815;28;20029;-56
2023/12/13 11:45:56;;;;;;;1.42;0.55;;;21.00;45.90;;;;;;5035230;28;20032;-57
2023/12/13 11:48:22;;;;;;;1.00;0.50;;;21.00;45.90;;;;;;5034361;28;20440;-55
2023/12/13 11:50:52;;;;;;;2.50;0.68;;;21.00;45.90;;;;;;5032516;28;20503;-61
2023/12/13 11:53:18;;;;;;;1.20;0.50;;;21.00;45.80;;;;;;5027793;28;20033;-57
2023/12/13 11:55:43;;;;;;;2.22;0.47;;;21.10;45.70;;;;;;5029522;28;20026;-54
2023/12/13 11:58:09;;;;;;;0.98;0.40;;;21.20;45.60;;;;;;5028843;28;20503;-57
2023/12/13 12:00:35;;;;;;;2.40;0.60;;;21.40;45.60;;;;;;5027820;28;20037;-60
2023/12/13 12:03:02;;;;;;;1.83;0.70;;;21.50;45.40;;;;;;5029456;28;20038;-56
2023/12/13 12:05:28;;;;;;;1.35;0.63;;;21.50;45.30;;;;;;5028912;28;20021;-59
2023/12/13 12:08:03;;;;;;;1.00;0.40;;;21.70;45.20;;;;;;5022283;28;20658;-54
2023/12/13 12:10:31;;;;;;;1.50;0.60;;;21.80;45.00;;;;;;5030973;28;20119;-59
2023/12/13 12:13:00;;;;;;;1.58;0.70;;;21.90;44.90;;;;;;5027321;28;20026;-59
2023/12/13 12:15:26;;;;;;;1.13;0.60;;;21.90;44.80;;;;;;5029836;28;20033;-56
2023/12/13 12:17:54;;;;;;;1.13;0.60;;;21.90;44.80;;;;;;5021856;28;20025;-60
2023/12/13 12:20:21;;;;;;;0.93;0.52;;;21.90;44.80;;;;;;5045638;28;20030;-59
2023/12/13 12:22:47;;;;;;;1.08;0.52;;;21.90;44.80;;;;;;5034561;28;20053;-59
2023/12/13 12:25:14;;;;;;;1.23;0.60;;;21.80;44.70;;;;;;5029665;28;20021;-58
2023/12/13 12:27:50;;;;;;;1.10;0.60;;;21.90;44.70;;;;;;5034477;28;20395;-57
2023/12/13 12:30:18;;;;;;;1.30;0.70;;;21.90;44.50;;;;;;5030900;28;20112;-58
2023/12/13 12:32:45;;;;;;;1.17;0.57;;;21.90;44.50;;;;;;5033602;28;20079;-56
2023/12/13 12:35:11;;;;;;;1.30;0.77;;;21.90;44.30;;;;;;5023245;28;20156;-60
2023/12/13 12:37:42;;;;;;;0.98;0.50;;;22.00;44.30;;;;;;5030538;28;20492;-57
2023/12/13 12:40:08;;;;;;;1.08;0.68;;;22.00;44.10;;;;;;5028152;28;20108;-56
2023/12/13 12:42:35;;;;;;;1.40;0.40;;;22.10;44.00;;;;;;5029908;28;20025;-60
2023/12/13 12:45:01;;;;;;;1.73;0.50;;;22.10;43.90;;;;;;5028848;28;20026;-58